createdAt,value
2023-05-09T00:01:07.776Z,19.88
2023-05-09T00:03:35.900Z,18.17
2023-05-09T00:06:04.285Z,21.63
2023-05-09T00:08:32.283Z,21.13
2023-05-09T00:11:00.149Z,21.42
2023-05-09T00:13:28.451Z,22.95
2023-05-09T00:15:58.450Z,19.98
2023-05-09T00:18:28.324Z,21.17
2023-05-09T00:20:56.710Z,23.02
2023-05-09T00:23:24.625Z,19.27
2023-05-09T00:25:52.556Z,21.55
2023-05-09T00:28:20.467Z,20.48
2023-05-09T00:30:48.336Z,22.55
2023-05-09T00:33:16.364Z,21.00
2023-05-09T00:35:45.628Z,18.92
2023-05-09T00:38:13.503Z,19.83
2023-05-09T00:40:41.436Z,21.65
2023-05-09T00:43:09.311Z,22.23
2023-05-09T00:45:37.242Z,19.08
2023-05-09T00:48:06.083Z,20.35
2023-05-09T00:50:34.481Z,19.95
2023-05-09T00:53:04.748Z,22.67
2023-05-09T00:55:33.106Z,18.13
2023-05-09T00:58:01.033Z,20.48
2023-05-09T01:00:29.370Z,19.83
2023-05-09T01:02:58.462Z,20.63
2023-05-09T01:05:31.492Z,22.98
2023-05-09T01:08:11.086Z,19.77
2023-05-09T01:10:45.161Z,21.42
2023-05-09T01:13:23.494Z,21.88
2023-05-09T01:15:59.320Z,20.30
2023-05-09T01:18:33.698Z,21.88
2023-05-09T01:21:07.611Z,21.20
2023-05-09T01:23:57.654Z,20.20
2023-05-09T01:26:35.914Z,20.48
2023-05-09T01:29:35.168Z,19.20
2023-05-09T01:32:08.349Z,19.88
2023-05-09T01:34:39.108Z,18.75
2023-05-09T01:37:09.427Z,18.55
2023-05-09T01:39:41.241Z,22.45
2023-05-09T01:42:12.028Z,20.55
2023-05-09T01:44:43.485Z,22.38
2023-05-09T01:47:12.802Z,20.50
2023-05-09T01:49:43.801Z,21.95
2023-05-09T01:52:15.508Z,18.33
2023-05-09T01:54:44.815Z,18.25
2023-05-09T01:57:15.486Z,22.00
2023-05-09T01:59:46.167Z,20.08
2023-05-09T02:02:14.717Z,22.48
2023-05-09T02:04:44.071Z,21.20
2023-05-09T02:07:13.545Z,19.88
2023-05-09T02:09:41.482Z,21.33
2023-05-09T02:12:09.375Z,23.75
2023-05-09T02:14:37.315Z,23.30
2023-05-09T02:17:09.485Z,25.25
2023-05-09T02:19:37.468Z,23.08
2023-05-09T02:22:05.714Z,21.83
2023-05-09T02:24:35.029Z,25.50
2023-05-09T02:27:04.472Z,22.38
2023-05-09T02:29:40.246Z,24.42
2023-05-09T02:32:12.562Z,22.98
2023-05-09T02:34:41.925Z,24.65
2023-05-09T02:37:11.252Z,22.45
2023-05-09T02:39:39.172Z,22.95
2023-05-09T02:42:12.438Z,27.75
2023-05-09T02:44:40.420Z,21.03
2023-05-09T02:47:10.346Z,23.10
2023-05-09T02:49:38.260Z,24.50
2023-05-09T02:52:06.660Z,22.92
2023-05-09T02:54:34.579Z,23.65
2023-05-09T02:57:02.467Z,24.50
2023-05-09T02:59:30.560Z,29.00
2023-05-09T03:02:02.060Z,25.52
2023-05-09T03:04:32.334Z,26.85
2023-05-09T03:07:00.765Z,22.55
2023-05-09T03:09:32.796Z,24.33
2023-05-09T03:12:01.463Z,23.08
2023-05-09T03:14:29.425Z,22.25
2023-05-09T03:16:57.541Z,27.45
2023-05-09T03:19:36.134Z,22.45
2023-05-09T03:22:04.239Z,21.35
2023-05-09T03:24:36.479Z,22.80
2023-05-09T03:27:04.493Z,22.02
2023-05-09T03:29:32.404Z,23.73
2023-05-09T03:32:00.315Z,24.23
2023-05-09T03:34:28.171Z,20.60
2023-05-09T03:36:57.704Z,22.33
2023-05-09T03:39:26.280Z,21.08
2023-05-09T03:41:57.735Z,21.27
2023-05-09T03:44:26.376Z,24.38
2023-05-09T03:46:54.239Z,24.92
2023-05-09T03:49:22.969Z,19.95
2023-05-09T03:51:54.098Z,22.20
2023-05-09T03:54:23.626Z,20.83
2023-05-09T03:56:52.398Z,18.92
2023-05-09T03:59:20.816Z,28.33
2023-05-09T04:01:48.879Z,20.00
2023-05-09T04:04:18.111Z,19.00
2023-05-09T04:06:46.427Z,22.20
2023-05-09T04:09:16.480Z,19.15
2023-05-09T04:11:46.588Z,22.23
2023-05-09T04:14:16.214Z,22.10
2023-05-09T04:16:44.249Z,26.30
2023-05-09T04:19:12.278Z,19.88
2023-05-09T04:21:40.470Z,21.85
2023-05-09T04:24:09.895Z,23.00
2023-05-09T04:26:47.904Z,19.25
2023-05-09T04:31:52.859Z,21.33
2023-05-09T04:34:23.730Z,17.95
2023-05-09T04:36:52.021Z,17.40
2023-05-09T04:39:21.742Z,19.08
2023-05-09T04:42:02.997Z,17.88
2023-05-09T04:44:31.228Z,18.70
2023-05-09T04:47:01.106Z,17.55
2023-05-09T04:49:29.305Z,15.43
2023-05-09T04:51:57.913Z,16.77
2023-05-09T04:54:27.041Z,18.50
2023-05-09T04:57:03.141Z,18.67
2023-05-09T04:59:38.198Z,16.52
2023-05-09T05:02:06.809Z,14.05
2023-05-09T05:04:35.168Z,16.75
2023-05-09T05:07:05.128Z,17.25
2023-05-09T05:09:33.753Z,13.70
2023-05-09T05:12:03.635Z,15.68
2023-05-09T05:14:33.178Z,13.65
2023-05-09T05:17:02.687Z,15.45
2023-05-09T05:19:30.711Z,14.85
2023-05-09T05:21:59.256Z,15.57
2023-05-09T05:24:28.135Z,16.40
2023-05-09T05:26:57.553Z,17.05
2023-05-09T05:29:26.496Z,15.98
2023-05-09T05:31:54.452Z,13.38
2023-05-09T05:34:24.033Z,13.30
2023-05-09T05:36:52.264Z,13.98
2023-05-09T05:39:20.270Z,13.80
2023-05-09T05:41:49.618Z,13.07
2023-05-09T05:44:17.849Z,13.15
2023-05-09T05:46:46.408Z,13.18
2023-05-09T05:49:14.435Z,12.80
2023-05-09T05:51:43.634Z,11.25
2023-05-09T05:54:12.967Z,13.13
2023-05-09T05:56:43.498Z,12.77
2023-05-09T05:59:13.387Z,12.02
2023-05-09T06:01:41.810Z,10.82
2023-05-09T06:04:10.347Z,11.07
2023-05-09T06:06:38.439Z,10.82
2023-05-09T06:09:07.764Z,14.82
2023-05-09T06:11:36.814Z,12.15
2023-05-09T06:14:04.972Z,11.88
2023-05-09T06:16:33.595Z,12.65
2023-05-09T06:19:01.457Z,12.52
2023-05-09T06:21:29.329Z,12.77
2023-05-09T06:24:09.866Z,12.48
2023-05-09T06:26:41.464Z,12.80
2023-05-09T06:29:10.858Z,11.32
2023-05-09T06:31:40.745Z,10.68
2023-05-09T06:34:08.948Z,11.13
2023-05-09T06:36:36.944Z,10.98
2023-05-09T06:39:05.160Z,11.15
2023-05-09T06:41:33.076Z,11.43
2023-05-09T06:44:03.100Z,10.45
2023-05-09T06:46:31.064Z,10.32
2023-05-09T06:49:01.618Z,11.40
2023-05-09T06:51:29.764Z,11.82
2023-05-09T06:53:57.857Z,11.07
2023-05-09T06:56:26.875Z,11.80
2023-05-09T06:58:55.073Z,12.15
2023-05-09T07:01:25.857Z,13.13
2023-05-09T07:03:53.908Z,11.43
2023-05-09T07:06:21.915Z,10.90
2023-05-09T07:08:50.086Z,10.90
2023-05-09T07:11:18.198Z,10.07
2023-05-09T07:13:46.153Z,9.85
2023-05-09T07:16:14.483Z,12.40
2023-05-09T07:18:43.693Z,12.13
2023-05-09T07:21:11.606Z,13.05
2023-05-09T07:23:39.436Z,13.40
2023-05-09T07:26:07.392Z,10.95
2023-05-09T07:28:35.528Z,11.75
2023-05-09T07:31:03.444Z,10.20
2023-05-09T07:33:31.461Z,10.68
2023-05-09T07:36:01.046Z,11.45
2023-05-09T07:38:28.972Z,10.80
2023-05-09T07:40:56.851Z,10.27
2023-05-09T07:43:24.888Z,10.68
2023-05-09T07:45:52.797Z,11.00
2023-05-09T07:48:20.808Z,10.20
2023-05-09T07:50:49.644Z,10.65
2023-05-09T07:53:18.896Z,9.45
2023-05-09T07:55:48.282Z,8.82
2023-05-09T07:58:16.626Z,9.48
2023-05-09T08:00:44.540Z,9.05
2023-05-09T08:03:12.704Z,9.10
2023-05-09T08:05:40.937Z,11.18
2023-05-09T08:08:08.842Z,9.38
2023-05-09T08:10:38.089Z,9.60
2023-05-09T08:13:06.106Z,8.80
2023-05-09T08:15:34.029Z,10.00
2023-05-09T08:18:02.175Z,9.23
2023-05-09T08:20:32.238Z,8.98
2023-05-09T08:23:00.116Z,8.05
2023-05-09T08:25:28.222Z,8.75
2023-05-09T08:27:57.477Z,8.10
2023-05-09T08:30:25.672Z,8.60
2023-05-09T08:32:53.652Z,8.02
2023-05-09T08:35:22.246Z,7.55
2023-05-09T08:37:50.369Z,6.82
2023-05-09T08:40:18.507Z,7.40
2023-05-09T08:42:46.840Z,6.47
2023-05-09T08:45:21.005Z,6.90
2023-05-09T08:47:49.314Z,8.73
2023-05-09T08:50:17.872Z,6.32
2023-05-09T08:52:46.122Z,5.22
2023-05-09T08:55:15.285Z,7.10
2023-05-09T08:57:43.220Z,6.82
2023-05-09T09:00:14.033Z,6.38
2023-05-09T09:02:44.785Z,6.68
2023-05-09T09:05:28.644Z,6.13
2023-05-09T09:08:01.680Z,8.32
2023-05-09T09:10:32.926Z,6.95
2023-05-09T09:13:01.802Z,6.15
2023-05-09T09:15:32.823Z,6.07
2023-05-09T09:18:08.974Z,7.85
2023-05-09T09:20:41.528Z,6.90
2023-05-09T09:23:11.448Z,6.28
2023-05-09T09:25:39.563Z,5.82
2023-05-09T09:28:07.723Z,6.03
2023-05-09T09:30:35.797Z,6.47
2023-05-09T09:33:07.839Z,5.88
2023-05-09T09:35:40.426Z,7.68
2023-05-09T09:40:39.204Z,8.52
2023-05-09T09:43:08.068Z,8.88
2023-05-09T09:45:36.397Z,7.57
2023-05-09T09:48:07.961Z,8.18
2023-05-09T09:50:36.027Z,7.63
2023-05-09T09:53:03.930Z,7.65
2023-05-09T09:55:33.076Z,7.40
2023-05-09T09:58:01.408Z,6.70
2023-05-09T10:00:30.215Z,8.55
2023-05-09T10:02:59.419Z,7.07
2023-05-09T10:05:30.166Z,7.90
2023-05-09T10:07:59.645Z,7.05
2023-05-09T10:10:29.213Z,7.25
2023-05-09T10:12:59.337Z,6.40
2023-05-09T10:15:33.471Z,6.30
2023-05-09T10:18:08.635Z,8.40
2023-05-09T10:20:41.169Z,8.43
2023-05-09T10:23:11.938Z,7.93
2023-05-09T10:25:45.634Z,8.13
2023-05-09T10:28:16.298Z,7.93
2023-05-09T10:30:54.949Z,7.38
2023-05-09T10:33:28.578Z,8.80
2023-05-09T10:35:59.909Z,8.43
2023-05-09T10:38:28.182Z,10.93
2023-05-09T10:40:57.578Z,8.35
2023-05-09T10:43:25.523Z,9.52
2023-05-09T10:45:54.230Z,8.35
2023-05-09T10:48:24.520Z,9.63
2023-05-09T10:50:53.485Z,10.00
2023-05-09T10:53:24.362Z,8.98
2023-05-09T10:55:56.365Z,9.73
2023-05-09T10:58:28.450Z,10.10
2023-05-09T11:00:58.297Z,11.00
2023-05-09T11:03:27.496Z,10.63
2023-05-09T11:05:57.267Z,11.20
2023-05-09T11:08:28.724Z,11.23
2023-05-09T11:10:57.510Z,9.55
2023-05-09T11:13:27.329Z,9.68
2023-05-09T11:16:12.387Z,10.52
2023-05-09T11:18:52.974Z,11.73
2023-05-09T11:21:22.308Z,11.65
2023-05-09T11:23:54.500Z,13.45
2023-05-09T11:26:24.613Z,12.93
2023-05-09T11:28:56.748Z,11.73
2023-05-09T11:31:24.904Z,9.98
2023-05-09T11:33:58.199Z,8.68
2023-05-09T11:36:32.087Z,14.07
2023-05-09T11:39:07.274Z,13.43
2023-05-09T11:41:41.129Z,12.98
2023-05-09T11:44:16.870Z,12.80
2023-05-09T11:46:44.930Z,12.98
2023-05-09T11:49:13.134Z,13.40
2023-05-09T11:51:41.584Z,14.00
2023-05-09T11:54:13.626Z,13.25
2023-05-09T11:56:42.672Z,14.27
2023-05-09T11:59:13.136Z,15.35
2023-05-09T12:01:41.276Z,13.30
2023-05-09T12:04:10.875Z,13.35
2023-05-09T12:06:38.922Z,12.45
2023-05-09T12:09:09.055Z,15.07
2023-05-09T12:11:38.374Z,13.75
2023-05-09T12:14:06.356Z,15.80
2023-05-09T12:16:34.482Z,15.55
2023-05-09T12:19:02.521Z,16.67
2023-05-09T12:21:30.383Z,14.05
2023-05-09T12:23:58.312Z,15.40
2023-05-09T12:26:27.064Z,14.52
2023-05-09T12:28:56.767Z,13.40
2023-05-09T12:31:24.894Z,14.02
2023-05-09T12:33:53.384Z,15.65
2023-05-09T12:36:21.912Z,14.02
2023-05-09T12:38:56.090Z,14.82
2023-05-09T12:43:56.922Z,14.80
2023-05-09T12:46:24.974Z,11.63
2023-05-09T12:48:52.964Z,14.90
2023-05-09T12:51:22.138Z,13.32
2023-05-09T12:53:50.779Z,16.15
2023-05-09T12:56:20.271Z,13.35
2023-05-09T12:58:53.112Z,15.80
2023-05-09T13:01:24.520Z,15.27
2023-05-09T13:03:53.069Z,12.90
2023-05-09T13:06:21.320Z,12.52
2023-05-09T13:09:00.253Z,11.68
2023-05-09T13:11:28.716Z,10.82
2023-05-09T13:13:56.623Z,12.27
2023-05-09T13:16:25.996Z,11.90
2023-05-09T13:18:53.995Z,10.43
2023-05-09T13:21:21.844Z,10.95
2023-05-09T13:23:51.145Z,11.60
2023-05-09T13:26:19.047Z,10.38
2023-05-09T13:28:46.999Z,11.93
2023-05-09T13:31:15.236Z,11.10
2023-05-09T13:33:44.585Z,9.77
2023-05-09T13:36:12.639Z,15.55
2023-05-09T13:38:40.877Z,10.48
2023-05-09T13:41:09.537Z,9.98
2023-05-09T13:43:38.324Z,9.10
2023-05-09T13:46:06.350Z,5.93
2023-05-09T13:48:34.385Z,8.90
2023-05-09T13:51:06.181Z,6.35
2023-05-09T13:53:34.079Z,12.52
2023-05-09T13:56:01.974Z,9.13
2023-05-09T13:58:29.914Z,6.40
2023-05-09T14:00:57.981Z,5.30
2023-05-09T14:03:26.721Z,5.22
2023-05-09T14:05:54.616Z,6.30
2023-05-09T14:08:24.215Z,6.93
2023-05-09T14:10:52.106Z,8.18
2023-05-09T14:13:20.073Z,7.30
2023-05-09T14:15:48.005Z,11.25
2023-05-09T14:18:18.565Z,9.52
2023-05-09T14:20:49.112Z,9.13
2023-05-09T14:23:17.150Z,7.65
2023-05-09T14:25:46.391Z,7.47
2023-05-09T14:28:14.712Z,6.22
2023-05-09T14:30:42.910Z,5.32
2023-05-09T14:33:11.141Z,12.40
2023-05-09T14:35:41.278Z,8.73
2023-05-09T14:38:09.707Z,5.03
2023-05-09T14:40:37.672Z,5.45
2023-05-09T14:43:07.332Z,7.82
2023-05-09T14:45:35.257Z,8.80
2023-05-09T14:48:04.192Z,9.43
2023-05-09T14:50:33.342Z,10.77
2023-05-09T14:53:02.051Z,10.80
2023-05-09T14:55:31.331Z,7.97
2023-05-09T14:58:00.875Z,9.55
2023-05-09T15:00:31.009Z,10.52
2023-05-09T15:02:58.944Z,8.45
2023-05-09T15:05:26.847Z,11.88
2023-05-09T15:07:54.765Z,8.77
2023-05-09T15:10:22.947Z,5.57
2023-05-09T15:12:50.951Z,6.00
2023-05-09T15:15:20.593Z,6.28
2023-05-09T15:17:49.872Z,9.68
2023-05-09T15:20:18.563Z,8.80
2023-05-09T15:22:47.486Z,7.05
2023-05-09T15:25:16.318Z,7.95
2023-05-09T15:27:44.753Z,8.40
2023-05-09T15:30:13.639Z,6.40
2023-05-09T15:32:41.732Z,6.50
2023-05-09T15:35:13.826Z,6.63
2023-05-09T15:37:41.798Z,7.30
2023-05-09T15:40:10.362Z,7.82
2023-05-09T15:42:39.621Z,6.65
2023-05-09T15:45:08.797Z,7.13
2023-05-09T15:47:36.966Z,6.55
2023-05-09T15:50:05.214Z,7.45
2023-05-09T15:52:34.496Z,9.77
2023-05-09T15:55:02.900Z,5.95
2023-05-09T15:57:30.777Z,7.90
2023-05-09T15:59:58.664Z,9.18
2023-05-09T16:02:28.392Z,8.07
2023-05-09T16:04:57.009Z,9.60
2023-05-09T16:07:27.673Z,9.07
2023-05-09T16:09:58.110Z,6.38
2023-05-09T16:12:27.058Z,7.18
2023-05-09T16:14:55.208Z,7.10
2023-05-09T16:17:24.402Z,7.78
2023-05-09T16:19:52.551Z,7.82
2023-05-09T16:22:20.466Z,9.00
2023-05-09T16:24:49.139Z,10.13
2023-05-09T16:27:19.426Z,12.10
2023-05-09T16:29:47.388Z,11.85
2023-05-09T16:32:15.235Z,11.15
2023-05-09T16:34:43.436Z,8.95
2023-05-09T16:37:11.438Z,11.20
2023-05-09T16:39:39.360Z,10.13
2023-05-09T16:42:07.438Z,10.57
2023-05-09T16:44:36.885Z,10.77
2023-05-09T16:47:04.932Z,8.55
2023-05-09T16:49:32.848Z,9.30
2023-05-09T16:52:00.713Z,11.15
2023-05-09T16:54:28.778Z,10.65
2023-05-09T16:56:57.750Z,10.35
2023-05-09T16:59:25.793Z,10.48
2023-05-09T17:01:57.662Z,11.13
2023-05-09T17:04:26.182Z,11.68
2023-05-09T17:06:54.120Z,11.05
2023-05-09T17:09:22.030Z,11.80
2023-05-09T17:11:49.990Z,15.57
2023-05-09T17:14:18.020Z,12.65
2023-05-09T17:16:46.208Z,13.73
2023-05-09T17:19:16.457Z,12.50
2023-05-09T17:21:44.616Z,10.02
2023-05-09T17:24:12.566Z,12.07
2023-05-09T17:26:40.482Z,14.57
2023-05-09T17:29:08.614Z,11.25
2023-05-09T17:31:38.054Z,9.55
2023-05-09T17:34:05.995Z,10.25
2023-05-09T17:36:40.961Z,9.20
2023-05-09T17:39:09.114Z,10.10
2023-05-09T17:41:37.259Z,11.40
2023-05-09T17:44:05.947Z,10.68
2023-05-09T17:46:36.895Z,9.43
2023-05-09T17:49:07.689Z,9.65
2023-05-09T17:51:37.701Z,13.02
2023-05-09T17:54:06.041Z,10.38
2023-05-09T17:56:34.064Z,11.32
2023-05-09T17:59:06.650Z,9.15
2023-05-09T18:01:35.987Z,10.05
2023-05-09T18:04:04.037Z,8.18
2023-05-09T18:06:32.148Z,15.10
2023-05-09T18:09:01.698Z,7.93
2023-05-09T18:11:29.684Z,8.90
2023-05-09T18:13:57.846Z,9.40
2023-05-09T18:16:26.029Z,7.20
2023-05-09T18:19:14.013Z,8.88
2023-05-09T18:21:41.985Z,9.27
2023-05-09T18:24:11.576Z,9.05
2023-05-09T18:26:39.934Z,7.60
2023-05-09T18:29:09.535Z,8.80
2023-05-09T18:31:38.819Z,10.18
2023-05-09T18:34:06.871Z,6.60
2023-05-09T18:36:35.073Z,7.47
2023-05-09T18:39:03.014Z,9.50
2023-05-09T18:41:33.928Z,8.55
2023-05-09T18:44:01.844Z,9.10
2023-05-09T18:46:31.708Z,9.48
2023-05-09T18:49:00.638Z,9.10
2023-05-09T18:51:30.068Z,10.05
2023-05-09T18:53:58.111Z,7.57
2023-05-09T18:56:26.295Z,11.93
2023-05-09T18:58:55.616Z,10.75
2023-05-09T19:01:24.250Z,9.68
2023-05-09T19:03:54.259Z,7.30
2023-05-09T19:06:24.009Z,8.73
2023-05-09T19:08:52.041Z,9.25
2023-05-09T19:11:20.251Z,8.98
2023-05-09T19:13:49.319Z,7.63
2023-05-09T19:16:24.661Z,7.60
2023-05-09T19:18:54.935Z,6.57
2023-05-09T19:21:23.537Z,8.20
2023-05-09T19:23:51.426Z,8.40
2023-05-09T19:26:22.188Z,10.07
2023-05-09T19:28:50.254Z,7.68
2023-05-09T19:31:20.427Z,10.75
2023-05-09T19:33:49.479Z,8.38
2023-05-09T19:36:17.879Z,8.43
2023-05-09T19:38:46.070Z,9.18
2023-05-09T19:41:14.871Z,11.90
2023-05-09T19:43:42.889Z,8.05
2023-05-09T19:46:10.773Z,8.57
2023-05-09T19:48:40.056Z,8.68
2023-05-09T19:51:12.122Z,7.72
2023-05-09T19:53:40.948Z,8.88
2023-05-09T19:56:09.859Z,10.02
2023-05-09T19:58:37.918Z,7.90
2023-05-09T20:01:07.087Z,10.50
2023-05-09T20:03:36.948Z,8.88
2023-05-09T20:06:07.678Z,11.88
2023-05-09T20:08:35.591Z,8.65
2023-05-09T20:11:03.481Z,10.35
2023-05-09T20:13:31.692Z,8.43
2023-05-09T20:16:00.143Z,10.95
2023-05-09T20:18:28.459Z,10.77
2023-05-09T20:20:56.317Z,12.05
2023-05-09T20:23:25.597Z,9.07
2023-05-09T20:25:53.594Z,10.80
2023-05-09T20:28:22.396Z,7.82
2023-05-09T20:30:50.867Z,9.05
2023-05-09T20:33:18.979Z,11.20
2023-05-09T20:35:49.092Z,10.07
2023-05-09T20:38:17.175Z,9.57
2023-05-09T20:40:47.131Z,10.95
2023-05-09T20:43:15.269Z,7.18
2023-05-09T20:45:43.414Z,11.73
2023-05-09T20:48:11.384Z,8.23
2023-05-09T20:50:39.241Z,9.30
2023-05-09T20:53:07.117Z,13.02
2023-05-09T20:55:35.637Z,13.43
2023-05-09T20:58:05.125Z,11.13
2023-05-09T21:00:33.353Z,13.57
2023-05-09T21:03:01.556Z,10.02
2023-05-09T21:05:29.494Z,12.30
2023-05-09T21:07:57.327Z,14.05
2023-05-09T21:10:25.906Z,10.13
2023-05-09T21:12:53.842Z,6.15
2023-05-09T21:15:24.551Z,5.93
2023-05-09T21:17:52.528Z,4.35
2023-05-09T21:20:20.472Z,4.70
2023-05-09T21:22:48.408Z,4.35
2023-05-09T21:25:17.665Z,3.92
2023-05-09T21:27:46.168Z,4.55
2023-05-09T21:30:14.453Z,3.10
2023-05-09T21:32:43.976Z,2.65
2023-05-09T21:35:13.110Z,3.47
2023-05-09T21:37:42.713Z,2.13
2023-05-09T21:40:11.324Z,2.92
2023-05-09T21:42:40.222Z,4.97
2023-05-09T21:45:09.255Z,4.28
2023-05-09T21:47:39.495Z,3.97
2023-05-09T21:50:10.563Z,2.90
2023-05-09T21:52:38.485Z,2.55
2023-05-09T21:55:06.792Z,1.95
2023-05-09T21:57:34.691Z,2.10
2023-05-09T22:00:05.153Z,2.50
2023-05-09T22:02:42.913Z,3.58
2023-05-09T22:05:12.912Z,4.60
2023-05-09T22:07:40.823Z,1.38
2023-05-09T22:10:09.748Z,1.65
2023-05-09T22:12:37.603Z,2.20
2023-05-09T22:15:06.564Z,1.25
2023-05-09T22:17:34.567Z,3.25
2023-05-09T22:20:02.602Z,3.67
2023-05-09T22:22:33.167Z,2.08
2023-05-09T22:25:01.146Z,1.15
2023-05-09T22:27:29.083Z,1.40
2023-05-09T22:29:57.032Z,1.27
2023-05-09T22:32:24.937Z,1.77
2023-05-09T22:34:54.246Z,3.38
2023-05-09T22:37:22.344Z,2.17
2023-05-09T22:39:51.546Z,2.00
2023-05-09T22:42:19.419Z,1.63
2023-05-09T22:44:49.653Z,1.02
2023-05-09T22:47:17.617Z,1.15
2023-05-09T22:49:46.014Z,0.90
2023-05-09T22:52:13.923Z,1.20
2023-05-09T22:54:42.136Z,1.30
2023-05-09T22:57:11.529Z,2.17
2023-05-09T22:59:39.477Z,1.35
2023-05-09T23:02:07.460Z,3.55
2023-05-09T23:04:36.491Z,2.60
2023-05-09T23:07:04.369Z,1.27
2023-05-09T23:09:32.279Z,4.00
2023-05-09T23:12:01.126Z,1.20
2023-05-09T23:14:30.611Z,3.50
2023-05-09T23:16:59.317Z,1.30
2023-05-09T23:19:27.194Z,2.85
2023-05-09T23:21:55.263Z,3.58
2023-05-09T23:24:23.150Z,2.03
2023-05-09T23:26:51.028Z,1.60
2023-05-09T23:29:18.889Z,2.22
2023-05-09T23:31:48.229Z,2.78
2023-05-09T23:34:16.220Z,3.08
2023-05-09T23:36:44.071Z,2.25
2023-05-09T23:39:12.068Z,1.38
2023-05-09T23:41:39.958Z,1.25
2023-05-09T23:44:07.990Z,2.42
2023-05-09T23:46:36.003Z,1.88
2023-05-09T23:49:05.253Z,1.88
2023-05-09T23:51:33.115Z,1.75
2023-05-09T23:54:01.025Z,1.38
2023-05-09T23:56:28.938Z,2.10
2023-05-09T23:58:56.781Z,4.40
